Time;durP1;ratioP1;P1;durP2;ratioP2;P2;SDS_P1;SDS_P2;PMS_P1;PMS_P2;Temp;Humidity;BMP_temperature;BMP_pressure;BME280_temperature;BME280_humidity;BME280_pressure;Samples;Min_cycle;Max_cycle;Signal;HPM_P1;HPM_P2
2022/01/13 00:01:08;;;;;;;288.35;24.80;;;3.20;96.70;;;;;;5093384;27;20049;-87
2022/01/13 00:03:34;;;;;;;189.65;23.55;;;3.20;96.80;;;;;;5101081;28;20525;-86
2022/01/13 00:06:03;;;;;;;305.08;27.25;;;3.30;96.90;;;;;;5106624;27;20056;-87
2022/01/13 00:08:30;;;;;;;144.07;21.30;;;3.30;96.80;;;;;;5099467;27;20429;-86
2022/01/13 00:10:57;;;;;;;168.20;22.20;;;3.30;96.80;;;;;;5102997;27;20048;-85
2022/01/13 00:13:31;;;;;;;238.73;23.17;;;3.30;96.80;;;;;;5100434;27;20417;-87
2022/01/13 00:18:51;;;;;;;185.00;22.75;;;3.30;96.70;;;;;;5102877;27;20841;-86
2022/01/13 00:23:53;;;;;;;181.60;23.05;;;3.30;96.70;;;;;;5103859;28;20131;-87
2022/01/13 00:26:23;;;;;;;129.77;19.38;;;3.30;96.60;;;;;;5094823;27;20106;-87
2022/01/13 00:28:53;;;;;;;139.07;21.38;;;3.30;96.70;;;;;;5109914;27;20531;-86
2022/01/13 00:31:25;;;;;;;143.07;21.02;;;3.30;96.70;;;;;;5098825;27;20083;-87
2022/01/13 00:33:54;;;;;;;254.50;24.10;;;3.30;96.70;;;;;;5106833;27;20047;-87
2022/01/13 00:36:23;;;;;;;205.40;22.85;;;3.30;96.60;;;;;;5097581;27;20150;-87
2022/01/13 00:38:50;;;;;;;215.15;21.80;;;3.30;96.70;;;;;;5102719;27;20048;-87
2022/01/13 00:41:17;;;;;;;139.45;21.73;;;3.30;96.80;;;;;;5096530;27;20503;-86
2022/01/13 00:43:47;;;;;;;137.77;20.25;;;3.30;96.80;;;;;;5107899;27;20082;-86
2022/01/13 00:46:23;;;;;;;150.98;19.08;;;3.30;96.80;;;;;;5103429;27;20059;-86
2022/01/13 00:48:51;;;;;;;141.00;19.40;;;3.30;96.70;;;;;;5105005;27;20086;-87
2022/01/13 00:51:19;;;;;;;111.68;17.65;;;3.20;96.60;;;;;;5102484;27;20437;-87
2022/01/13 00:53:46;;;;;;;107.22;16.67;;;3.20;96.60;;;;;;5099364;27;20836;-86
2022/01/13 00:56:13;;;;;;;123.25;16.75;;;3.20;96.60;;;;;;5102383;27;20072;-87
2022/01/13 00:58:40;;;;;;;163.15;17.92;;;3.20;96.60;;;;;;5107874;27;20052;-87
2022/01/13 01:01:07;;;;;;;107.25;17.27;;;3.10;96.60;;;;;;5104539;27;20102;-86
2022/01/13 01:03:36;;;;;;;116.05;15.85;;;3.20;96.60;;;;;;5105279;27;20128;-87
2022/01/13 01:06:04;;;;;;;151.50;18.33;;;3.20;96.60;;;;;;5110199;27;20071;-87
2022/01/13 01:08:33;;;;;;;196.95;20.55;;;3.20;96.50;;;;;;5108183;27;20079;-86
2022/01/13 01:11:02;;;;;;;152.48;18.40;;;3.10;96.50;;;;;;5105216;27;20409;-86
2022/01/13 01:13:33;;;;;;;146.50;18.05;;;3.10;96.50;;;;;;5108024;27;20058;-86
2022/01/13 01:16:04;;;;;;;144.82;17.65;;;3.10;96.50;;;;;;5101153;27;20084;-86
2022/01/13 01:24:09;;;;;;;116.80;17.13;;;3.10;96.80;;;;;;5096675;27;20076;-87
2022/01/13 01:32:17;;;;;;;233.02;19.55;;;3.10;96.70;;;;;;5049961;28;20107;-86
2022/01/13 01:35:01;;;;;;;184.93;19.40;;;3.10;96.70;;;;;;5047756;28;20111;-87
2022/01/13 01:37:30;;;;;;;153.50;18.15;;;3.10;96.80;;;;;;5049028;28;20136;-86
2022/01/13 01:39:59;;;;;;;230.45;20.77;;;3.10;96.80;;;;;;5049648;28;20057;-87
2022/01/13 01:42:27;;;;;;;120.93;16.88;;;3.10;96.70;;;;;;5040507;28;20544;-87
2022/01/13 01:44:59;;;;;;;130.98;17.27;;;3.10;96.70;;;;;;5028775;28;20053;-87
2022/01/13 01:47:29;;;;;;;158.48;17.90;;;3.10;96.80;;;;;;5044135;28;20105;-86
2022/01/13 01:50:11;;;;;;;159.93;19.30;;;3.20;96.70;;;;;;5035225;28;20129;-87
2022/01/13 01:52:39;;;;;;;254.70;20.42;;;3.20;96.70;;;;;;5028558;28;20049;-86
2022/01/13 01:55:07;;;;;;;110.72;17.58;;;3.10;96.60;;;;;;5046591;28;20564;-87
2022/01/13 01:57:34;;;;;;;211.00;21.17;;;3.10;96.60;;;;;;5045078;28;20049;-86
2022/01/13 02:00:02;;;;;;;218.98;20.38;;;3.10;96.60;;;;;;5046473;28;20054;-87
2022/01/13 02:02:29;;;;;;;229.02;20.55;;;3.10;96.70;;;;;;5062099;28;20079;-87
2022/01/13 02:04:57;;;;;;;236.02;21.92;;;3.10;96.80;;;;;;5104302;27;20059;-86
2022/01/13 02:07:24;;;;;;;157.48;19.40;;;3.10;97.00;;;;;;5115062;27;20049;-87
2022/01/13 02:09:53;;;;;;;325.77;25.75;;;3.20;97.10;;;;;;5102567;27;20048;-87
2022/01/13 02:12:38;;;;;;;120.18;19.73;;;3.20;97.10;;;;;;5097812;27;20060;-86
2022/01/13 02:17:40;;;;;;;222.75;23.23;;;3.20;97.10;;;;;;5103774;27;20861;-86
2022/01/13 02:20:10;;;;;;;167.90;23.17;;;3.20;97.10;;;;;;5106134;27;20098;-86
2022/01/13 02:22:37;;;;;;;307.75;23.88;;;3.20;97.00;;;;;;5097031;27;20056;-87
2022/01/13 02:25:05;;;;;;;163.45;21.17;;;3.20;97.10;;;;;;5097512;27;20137;-87
2022/01/13 02:27:31;;;;;;;133.57;19.88;;;3.20;97.10;;;;;;5103626;27;20545;-86
2022/01/13 02:29:58;;;;;;;322.85;25.58;;;3.20;97.10;;;;;;5095551;27;20053;-87
2022/01/13 02:32:25;;;;;;;241.18;22.55;;;3.30;97.00;;;;;;5102156;27;20075;-86
2022/01/13 02:34:52;;;;;;;239.95;20.95;;;3.20;97.00;;;;;;5096196;27;20135;-87
2022/01/13 02:37:19;;;;;;;165.45;20.38;;;3.20;97.00;;;;;;5104435;27;20106;-86
2022/01/13 02:39:46;;;;;;;309.80;25.17;;;3.20;97.00;;;;;;5100984;27;20057;-86
2022/01/13 02:42:14;;;;;;;153.77;19.02;;;3.10;97.00;;;;;;5100257;27;20072;-86
2022/01/13 02:44:50;;;;;;;189.77;20.95;;;3.10;97.00;;;;;;5105802;27;20080;-87
2022/01/13 02:50:20;;;;;;;185.70;18.40;;;3.10;97.10;;;;;;5048867;28;20050;-87
2022/01/13 02:52:47;;;;;;;124.75;17.40;;;3.20;97.10;;;;;;5024125;28;20144;-87
2022/01/13 02:55:16;;;;;;;159.45;18.63;;;3.10;97.10;;;;;;5028973;28;20132;-86
2022/01/13 02:57:46;;;;;;;199.45;18.83;;;3.10;97.10;;;;;;5030328;28;20049;-87
2022/01/13 03:00:16;;;;;;;136.20;18.50;;;3.00;97.00;;;;;;5021209;28;20773;-87
2022/01/13 03:02:46;;;;;;;150.68;21.52;;;3.10;97.10;;;;;;5037085;28;20085;-87
2022/01/13 03:05:16;;;;;;;190.07;20.15;;;3.10;97.10;;;;;;5042098;28;20540;-86
2022/01/13 03:07:43;;;;;;;145.15;17.40;;;3.10;97.00;;;;;;5031891;28;20094;-86
2022/01/13 03:10:23;;;;;;;161.50;17.13;;;3.00;96.90;;;;;;5044155;28;20053;-86
2022/01/13 03:13:13;;;;;;;190.63;16.65;;;3.00;96.90;;;;;;5025091;28;20143;-86
2022/01/13 03:15:42;;;;;;;153.38;17.10;;;3.00;96.90;;;;;;5029143;28;20450;-87
2022/01/13 03:18:09;;;;;;;198.35;17.33;;;3.00;97.00;;;;;;5028020;28;20057;-87
2022/01/13 03:20:35;;;;;;;147.18;16.67;;;3.00;96.90;;;;;;5047790;28;20055;-87
2022/01/13 03:23:05;;;;;;;222.85;18.23;;;3.00;96.90;;;;;;5042589;28;20054;-86
2022/01/13 03:25:31;;;;;;;149.65;15.65;;;2.90;96.90;;;;;;5102174;27;20051;-86
2022/01/13 03:28:05;;;;;;;240.77;18.17;;;2.90;97.00;;;;;;5096015;27;20051;-86
2022/01/13 03:30:32;;;;;;;366.40;22.05;;;2.90;97.00;;;;;;5098390;27;20064;-87
2022/01/13 03:33:00;;;;;;;210.38;17.63;;;2.90;97.10;;;;;;5093670;27;20423;-87
2022/01/13 03:35:27;;;;;;;215.38;19.63;;;2.90;97.10;;;;;;5105333;27;20063;-87
2022/01/13 03:37:54;;;;;;;261.30;20.95;;;2.90;97.10;;;;;;5104652;27;20053;-86
2022/01/13 03:40:21;;;;;;;256.63;20.48;;;2.90;97.20;;;;;;5102115;28;20040;-87
2022/01/13 03:42:48;;;;;;;378.60;28.30;;;2.90;97.30;;;;;;5099355;28;20055;-86
2022/01/13 03:45:15;;;;;;;312.73;25.70;;;2.90;97.30;;;;;;5092371;27;20055;-86
2022/01/13 03:47:41;;;;;;;261.05;25.23;;;2.90;97.40;;;;;;5098972;27;20054;-87
2022/01/13 03:50:08;;;;;;;380.70;26.33;;;2.90;97.50;;;;;;5101980;27;20095;-87
2022/01/13 03:52:57;;;;;;;197.95;21.55;;;2.90;97.60;;;;;;5096285;27;20185;-87
2022/01/13 03:55:36;;;;;;;147.00;19.45;;;2.90;97.70;;;;;;5095274;27;20059;-86
2022/01/13 03:58:12;;;;;;;153.07;21.13;;;2.90;97.70;;;;;;5106289;27;20897;-86
2022/01/13 04:01:23;;;;;;;180.75;21.25;;;2.90;97.80;;;;;;5104650;27;20052;-86
2022/01/13 04:03:50;;;;;;;403.15;26.45;;;3.00;97.80;;;;;;5095876;27;20418;-87
2022/01/13 04:06:16;;;;;;;266.27;24.27;;;3.00;97.80;;;;;;5098988;27;20155;-86
2022/01/13 04:08:47;;;;;;;210.40;22.33;;;3.00;97.70;;;;;;5098150;27;20424;-87
2022/01/13 04:11:29;;;;;;;327.20;25.50;;;3.00;97.70;;;;;;5092489;27;20071;-87
2022/01/13 04:13:59;;;;;;;233.25;22.52;;;3.00;97.70;;;;;;5101423;27;20048;-87
2022/01/13 04:16:32;;;;;;;274.08;24.58;;;3.00;97.70;;;;;;5102630;27;20067;-86
2022/01/13 04:19:04;;;;;;;215.50;23.33;;;3.00;97.70;;;;;;5098336;27;20135;-87
2022/01/13 04:21:36;;;;;;;165.45;21.00;;;3.10;97.80;;;;;;5099014;27;20048;-86
2022/01/13 04:24:04;;;;;;;234.07;21.58;;;3.10;97.80;;;;;;5097713;27;20586;-86
2022/01/13 04:26:33;;;;;;;236.85;22.65;;;3.10;97.70;;;;;;5108937;27;20710;-86
2022/01/13 04:31:47;;;;;;;211.40;22.17;;;3.00;97.60;;;;;;5094636;27;20838;-87
2022/01/13 04:34:13;;;;;;;229.38;21.85;;;3.00;97.60;;;;;;5092793;27;20053;-87
2022/01/13 04:36:40;;;;;;;240.70;22.85;;;3.00;97.70;;;;;;5100635;27;20060;-87
2022/01/13 04:39:09;;;;;;;294.50;23.65;;;3.10;97.70;;;;;;5107269;27;20947;-87
2022/01/13 04:41:38;;;;;;;376.50;27.60;;;3.10;97.80;;;;;;5099453;27;20487;-87
2022/01/13 04:44:11;;;;;;;294.15;25.13;;;3.10;97.70;;;;;;5099826;27;20054;-87
2022/01/13 04:46:39;;;;;;;209.63;21.30;;;3.10;97.80;;;;;;5096665;27;20865;-87
2022/01/13 04:49:06;;;;;;;314.73;27.20;;;3.10;97.80;;;;;;5097040;27;20049;-87
2022/01/13 04:51:34;;;;;;;133.23;20.45;;;3.10;97.80;;;;;;5088834;28;20070;-87
2022/01/13 04:54:01;;;;;;;296.85;24.02;;;3.10;97.90;;;;;;5101471;27;20075;-86
2022/01/13 04:56:38;;;;;;;179.55;18.88;;;3.10;97.80;;;;;;5098027;28;20419;-87
2022/01/13 04:59:06;;;;;;;166.93;19.60;;;3.10;97.80;;;;;;5100933;27;20496;-86
2022/01/13 05:01:33;;;;;;;223.40;20.63;;;3.10;97.90;;;;;;5095937;27;20051;-86
2022/01/13 05:04:00;;;;;;;179.50;20.05;;;3.10;97.80;;;;;;5103692;27;20048;-87
2022/01/13 05:06:27;;;;;;;178.35;20.05;;;3.10;97.80;;;;;;5109476;27;20052;-86
2022/01/13 05:08:54;;;;;;;265.30;22.95;;;3.10;97.90;;;;;;5103560;27;20055;-87
2022/01/13 05:11:21;;;;;;;213.55;20.05;;;3.10;97.90;;;;;;5092224;27;20049;-86
2022/01/13 05:13:48;;;;;;;112.20;18.40;;;3.10;97.80;;;;;;5095668;27;20080;-87
2022/01/13 05:16:22;;;;;;;156.57;20.27;;;3.10;97.80;;;;;;5097308;27;20084;-86
2022/01/13 05:19:08;;;;;;;;;;;3.10;97.80;;;;;;5101536;27;20513;-87
2022/01/13 05:22:23;;;;;;;215.48;20.83;;;3.20;97.70;;;;;;5102982;27;19928;-87
2022/01/13 05:24:28;;;;;;;346.05;25.83;;;3.10;97.70;;;;;;5093547;27;20055;-87
2022/01/13 05:26:59;;;;;;;259.65;23.98;;;3.10;97.60;;;;;;5105087;27;20102;-86
2022/01/13 05:29:26;;;;;;;319.73;25.25;;;3.10;97.60;;;;;;5105120;28;20079;-87
2022/01/13 05:31:53;;;;;;;278.67;25.83;;;3.10;97.60;;;;;;5101545;27;20067;-87
2022/01/13 05:34:20;;;;;;;310.52;26.50;;;3.10;97.70;;;;;;5098568;27;20053;-86
2022/01/13 05:37:07;;;;;;;188.10;23.80;;;3.10;97.80;;;;;;5102643;27;20143;-86
2022/01/13 05:39:33;;;;;;;419.70;29.90;;;3.10;97.80;;;;;;5100783;28;20051;-86
2022/01/13 05:42:00;;;;;;;360.30;27.83;;;3.10;97.80;;;;;;5099431;27;20536;-86
2022/01/13 05:44:28;;;;;;;233.18;23.27;;;3.10;97.80;;;;;;5107659;27;20514;-87
2022/01/13 05:46:55;;;;;;;188.40;24.85;;;3.10;97.70;;;;;;5100446;28;20488;-87
2022/01/13 05:49:21;;;;;;;186.23;22.98;;;3.10;97.70;;;;;;5098803;27;20860;-87
2022/01/13 05:51:48;;;;;;;171.90;23.08;;;3.10;97.70;;;;;;5103670;27;20470;-86
2022/01/13 05:54:18;;;;;;;256.52;24.88;;;3.10;97.70;;;;;;5100210;27;21103;-86
2022/01/13 05:56:44;;;;;;;167.00;21.98;;;3.10;97.70;;;;;;5101976;27;20484;-87
2022/01/13 05:59:41;;;;;;;280.83;25.17;;;3.10;97.80;;;;;;5105042;28;20171;-87
2022/01/13 06:02:08;;;;;;;294.80;26.10;;;3.10;97.90;;;;;;5104423;27;20139;-87
2022/01/13 06:05:40;;;;;;;;;;;;;;;;;;;;;
2022/01/13 06:08:21;;;;;;;215.20;22.80;;;3.10;97.70;;;;;;5086079;27;20048;-87
2022/01/13 06:10:48;;;;;;;246.82;23.35;;;3.10;97.70;;;;;;5102428;27;20076;-86
2022/01/13 06:13:17;;;;;;;216.38;23.73;;;3.10;97.70;;;;;;5097742;27;20556;-86
2022/01/13 06:15:47;;;;;;;330.67;27.00;;;3.10;97.70;;;;;;5097134;27;20052;-86
2022/01/13 06:18:15;;;;;;;227.57;23.77;;;3.10;97.70;;;;;;5099000;27;20056;-87
2022/01/13 06:20:45;;;;;;;235.70;22.73;;;3.10;97.80;;;;;;5105564;27;20048;-86
2022/01/13 06:23:15;;;;;;;225.38;22.30;;;3.00;97.80;;;;;;5110620;27;20783;-86
2022/01/13 06:25:44;;;;;;;147.80;20.33;;;3.00;97.70;;;;;;5106978;27;20090;-87
2022/01/13 06:28:17;;;;;;;308.60;25.65;;;3.10;97.90;;;;;;5104919;28;20071;-87
2022/01/13 06:30:44;;;;;;;336.63;25.23;;;3.10;97.80;;;;;;5096444;27;20516;-87
2022/01/13 06:33:15;;;;;;;161.93;20.17;;;3.10;97.80;;;;;;5107999;27;20056;-87
2022/01/13 06:35:54;;;;;;;229.45;21.45;;;3.10;97.80;;;;;;5107455;27;20060;-86
2022/01/13 06:38:35;;;;;;;332.48;25.05;;;3.10;97.80;;;;;;5101153;27;20055;-86
2022/01/13 06:41:08;;;;;;;159.90;19.20;;;3.10;97.80;;;;;;5102737;27;20052;-87
2022/01/13 06:43:48;;;;;;;221.75;20.30;;;3.10;97.80;;;;;;5099143;27;20106;-87
2022/01/13 06:46:17;;;;;;;272.45;22.95;;;3.10;97.80;;;;;;5099192;27;20072;-86
2022/01/13 06:48:52;;;;;;;166.50;18.65;;;3.10;97.80;;;;;;5108396;27;20052;-87
2022/01/13 06:51:35;;;;;;;139.63;18.20;;;3.10;97.80;;;;;;5105693;27;20106;-86
2022/01/13 06:54:09;;;;;;;214.43;20.45;;;3.10;97.80;;;;;;5102745;27;20535;-86
2022/01/13 06:57:23;;;;;;;178.85;19.63;;;3.10;97.80;;;;;;5097126;27;20048;-86
2022/01/13 06:59:50;;;;;;;164.25;18.65;;;3.10;97.80;;;;;;5101846;27;20055;-86
2022/01/13 07:02:28;;;;;;;128.38;17.42;;;3.10;97.80;;;;;;5106255;28;20048;-86
2022/01/13 07:05:36;;;;;;;301.90;23.70;;;3.10;97.90;;;;;;5098810;27;20057;-87
2022/01/13 07:08:12;;;;;;;135.48;17.25;;;3.10;97.70;;;;;;5093966;27;20708;-86
2022/01/13 07:10:56;;;;;;;222.60;19.92;;;3.10;97.80;;;;;;5104311;27;20101;-87
2022/01/13 07:13:23;;;;;;;197.77;21.42;;;3.00;97.70;;;;;;5097151;27;20515;-86
2022/01/13 07:16:00;;;;;;;198.75;20.33;;;3.00;97.60;;;;;;5103970;27;20110;-87
2022/01/13 07:18:28;;;;;;;176.23;19.15;;;3.00;97.60;;;;;;5099149;27;20837;-87
2022/01/13 07:21:04;;;;;;;136.63;19.00;;;3.00;97.70;;;;;;5094360;27;20880;-86
2022/01/13 07:23:40;;;;;;;229.75;20.67;;;3.00;97.70;;;;;;5099816;27;20040;-86
2022/01/13 07:26:10;;;;;;;119.53;17.00;;;3.00;97.70;;;;;;5109737;27;20052;-86
2022/01/13 07:28:40;;;;;;;125.97;17.88;;;3.00;97.70;;;;;;5100297;27;20040;-86
2022/01/13 07:31:16;;;;;;;174.77;18.23;;;3.00;97.70;;;;;;5098900;27;20114;-86
2022/01/13 07:33:59;;;;;;;190.60;19.85;;;3.10;97.70;;;;;;5098903;27;20048;-87
2022/01/13 07:36:30;;;;;;;131.05;17.67;;;3.00;97.70;;;;;;5096102;27;20047;-86
2022/01/13 07:38:58;;;;;;;135.85;17.30;;;3.00;97.70;;;;;;5097814;27;20048;-86
2022/01/13 07:41:42;;;;;;;138.52;16.23;;;3.00;97.60;;;;;;5095298;27;20056;-86
2022/01/13 07:44:18;;;;;;;102.90;17.20;;;3.00;97.70;;;;;;5096461;27;20491;-85
2022/01/13 07:46:51;;;;;;;120.78;16.35;;;3.00;97.70;;;;;;5093394;27;20908;-86
2022/01/13 07:49:17;;;;;;;269.27;22.35;;;3.10;97.70;;;;;;5099636;27;20257;-85
2022/01/13 07:51:52;;;;;;;113.55;17.38;;;3.10;97.60;;;;;;5097639;27;20094;-85
2022/01/13 07:54:21;;;;;;;168.60;18.30;;;3.10;97.60;;;;;;5093240;27;20054;-85
2022/01/13 07:56:57;;;;;;;106.38;16.17;;;3.00;97.60;;;;;;5100409;27;20055;-85
2022/01/13 07:59:32;;;;;;;129.15;16.48;;;3.10;97.50;;;;;;5099144;27;20446;-85
2022/01/13 08:02:00;;;;;;;134.93;17.30;;;3.10;97.60;;;;;;5092195;27;20577;-86
2022/01/13 08:04:30;;;;;;;216.00;19.48;;;3.10;97.60;;;;;;5094815;27;20049;-85
2022/01/13 08:07:00;;;;;;;147.88;17.00;;;3.10;97.50;;;;;;5098145;27;20044;-85
2022/01/13 08:09:27;;;;;;;118.05;16.58;;;3.10;97.60;;;;;;5099626;27;20087;-86
2022/01/13 08:11:56;;;;;;;132.30;17.05;;;3.10;97.60;;;;;;5101011;27;20052;-85
2022/01/13 08:14:23;;;;;;;95.20;16.20;;;3.10;97.60;;;;;;5101746;27;20499;-85
2022/01/13 08:16:55;;;;;;;121.10;16.30;;;3.10;97.70;;;;;;5103532;27;20047;-85
2022/01/13 08:22:26;;;;;;;112.28;15.52;;;3.10;97.70;;;;;;5094989;27;20047;-84
2022/01/13 08:24:53;;;;;;;130.65;16.80;;;3.10;97.60;;;;;;5100471;27;20045;-86
2022/01/13 08:27:22;;;;;;;122.57;17.17;;;3.20;97.70;;;;;;5096326;27;20072;-85
2022/01/13 08:30:17;;;;;;;161.88;18.38;;;3.20;97.60;;;;;;5099960;27;20051;-85
2022/01/13 08:32:47;;;;;;;112.68;16.02;;;3.20;97.50;;;;;;5093106;27;20056;-86
2022/01/13 08:35:43;;;;;;;136.60;17.42;;;3.20;97.50;;;;;;5096997;27;20060;-85
2022/01/13 08:38:29;;;;;;;108.85;16.23;;;3.20;97.50;;;;;;5091268;27;20053;-85
2022/01/13 08:40:59;;;;;;;160.35;19.00;;;3.20;97.40;;;;;;5102063;27;20051;-85
2022/01/13 08:43:34;;;;;;;136.07;17.58;;;3.20;97.40;;;;;;5099818;27;20052;-86
2022/01/13 08:46:18;;;;;;;114.30;18.80;;;3.20;97.40;;;;;;5107101;27;20129;-86
2022/01/13 08:48:57;;;;;;;107.63;17.65;;;3.20;97.40;;;;;;5094803;27;20826;-86
2022/01/13 08:51:35;;;;;;;152.13;19.85;;;3.30;97.40;;;;;;5101623;27;20048;-86
2022/01/13 08:54:55;;;;;;;;;;;;;;;;;;;;;
2022/01/13 08:58:16;;;;;;;120.97;20.98;;;3.30;97.40;;;;;;5094335;27;20055;-85
2022/01/13 09:01:17;;;;;;;126.43;19.52;;;3.30;97.40;;;;;;5099738;27;20056;-86
2022/01/13 09:03:58;;;;;;;117.10;19.60;;;3.30;97.50;;;;;;5100366;27;20813;-86
2022/01/13 09:06:37;;;;;;;190.55;21.63;;;3.40;97.40;;;;;;5104987;27;20055;-86
2022/01/13 09:09:28;;;;;;;115.00;17.63;;;3.40;97.40;;;;;;5098803;27;20584;-86
2022/01/13 09:12:08;;;;;;;132.25;19.50;;;3.40;97.40;;;;;;5107855;27;20063;-86
2022/01/13 09:15:14;;;;;;;121.57;20.23;;;3.40;97.20;;;;;;5093552;27;20849;-85
2022/01/13 09:18:18;;;;;;;;;;;;;;;;;;;;;
2022/01/13 09:21:09;;;;;;;173.07;20.17;;;3.40;97.30;;;;;;5099857;27;21181;-86
2022/01/13 09:27:25;;;;;;;102.25;18.92;;;3.50;97.40;;;;;;5105193;27;19924;-86
2022/01/13 09:30:23;;;;;;;;;;;;;;;;;;;;;
2022/01/13 09:32:55;;;;;;;179.75;20.48;;;3.50;97.40;;;;;;5106620;27;20520;-85
2022/01/13 09:35:41;;;;;;;101.70;19.88;;;3.50;97.30;;;;;;5108991;27;20471;-85
2022/01/13 09:38:15;;;;;;;115.57;18.63;;;3.60;97.40;;;;;;5101262;27;21097;-86
2022/01/13 09:41:09;;;;;;;122.03;18.98;;;3.60;97.40;;;;;;5094673;27;20154;-86
2022/01/13 09:43:52;;;;;;;139.10;19.38;;;3.60;97.40;;;;;;5074440;27;20063;-86
2022/01/13 09:46:26;;;;;;;120.13;19.15;;;3.70;97.30;;;;;;5096579;27;20076;-86
2022/01/13 09:48:54;;;;;;;160.85;21.13;;;3.70;97.20;;;;;;5104727;27;20052;-86
2022/01/13 09:51:27;;;;;;;140.95;21.38;;;3.70;97.20;;;;;;5096042;27;20059;-85
2022/01/13 09:53:53;;;;;;;122.35;19.70;;;3.70;97.10;;;;;;5099882;27;20048;-86
2022/01/13 09:56:32;;;;;;;168.00;20.50;;;3.70;97.20;;;;;;5101187;27;20189;-86
2022/01/13 09:59:05;;;;;;;121.15;19.33;;;3.70;97.10;;;;;;5100313;27;20055;-84
2022/01/13 10:01:36;;;;;;;134.13;20.67;;;3.80;97.20;;;;;;5099559;27;20060;-85
2022/01/13 10:04:09;;;;;;;152.60;21.42;;;3.70;97.00;;;;;;5096390;27;20063;-85
2022/01/13 10:06:48;;;;;;;135.50;22.25;;;3.80;97.10;;;;;;5095535;27;20049;-85
2022/01/13 10:09:18;;;;;;;92.47;18.33;;;3.80;97.20;;;;;;5098944;27;20813;-85
2022/01/13 10:11:54;;;;;;;139.13;22.48;;;3.90;97.20;;;;;;5098446;27;20048;-86
2022/01/13 10:17:51;;;;;;;;;;;3.80;97.00;;;;;;5097745;27;20052;-85
2022/01/13 10:20:40;;;;;;;78.35;18.98;;;3.90;97.00;;;;;;5102674;27;19997;-85
2022/01/13 10:23:21;;;;;;;108.25;20.50;;;3.80;96.80;;;;;;5101535;27;20048;-85
2022/01/13 10:26:08;;;;;;;132.88;21.48;;;3.90;97.00;;;;;;5104092;27;20126;-85
2022/01/13 10:28:38;;;;;;;95.20;20.42;;;4.00;97.20;;;;;;5098223;27;20052;-85
2022/01/13 10:31:10;;;;;;;104.03;19.83;;;4.10;97.10;;;;;;5102696;27;20139;-85
2022/01/13 10:33:40;;;;;;;92.75;19.95;;;4.00;96.90;;;;;;5106988;27;20059;-84
2022/01/13 10:36:19;;;;;;;102.85;20.02;;;4.10;96.90;;;;;;5099231;27;20052;-84
2022/01/13 10:39:17;;;;;;;89.65;19.70;;;4.10;96.80;;;;;;5105025;27;20052;-85
2022/01/13 10:42:11;;;;;;;75.22;19.27;;;4.10;96.70;;;;;;5103394;27;20052;-85
2022/01/13 10:44:55;;;;;;;80.07;18.23;;;4.20;96.70;;;;;;5101900;27;20050;-85
2022/01/13 10:47:26;;;;;;;60.95;16.25;;;4.20;96.50;;;;;;5102064;28;20059;-85
2022/01/13 10:50:22;;;;;;;81.78;18.23;;;4.20;96.30;;;;;;5105475;27;20150;-85
2022/01/13 10:53:06;;;;;;;89.13;19.77;;;4.10;96.10;;;;;;5089957;27;20549;-85
2022/01/13 10:56:09;;;;;;;96.82;19.10;;;4.10;96.00;;;;;;5104333;28;20068;-84
2022/01/13 10:58:53;;;;;;;74.45;18.15;;;4.10;96.10;;;;;;5104120;27;20047;-86
2022/01/13 11:01:33;;;;;;;83.97;20.15;;;4.10;96.10;;;;;;5098055;27;20049;-86
2022/01/13 11:04:43;;;;;;;85.70;20.30;;;4.10;96.20;;;;;;5094215;27;20063;-86
2022/01/13 11:07:23;;;;;;;69.80;19.00;;;4.10;95.90;;;;;;5110300;27;20487;-86
2022/01/13 11:10:08;;;;;;;90.88;20.00;;;4.10;95.90;;;;;;5101507;27;20053;-85
2022/01/13 11:12:43;;;;;;;86.43;19.13;;;4.20;96.10;;;;;;5098087;27;20084;-86
2022/01/13 11:15:24;;;;;;;68.47;19.25;;;4.20;95.90;;;;;;5107996;27;20056;-86
2022/01/13 11:18:04;;;;;;;55.75;17.73;;;4.20;95.90;;;;;;5106344;27;20071;-86
2022/01/13 11:20:36;;;;;;;54.47;17.27;;;4.20;95.80;;;;;;5105800;27;20052;-86
2022/01/13 11:23:12;;;;;;;64.78;19.42;;;4.30;95.80;;;;;;5105738;27;20048;-86
2022/01/13 11:25:44;;;;;;;61.75;17.73;;;4.20;95.60;;;;;;5101137;27;20052;-86
2022/01/13 11:28:33;;;;;;;74.18;20.75;;;4.30;95.60;;;;;;5093218;28;20056;-86
2022/01/13 11:31:20;;;;;;;62.15;16.95;;;4.20;95.40;;;;;;5097309;27;20071;-86
2022/01/13 11:34:03;;;;;;;54.05;17.38;;;4.30;95.50;;;;;;5100473;27;20107;-86
2022/01/13 11:36:37;;;;;;;68.05;17.75;;;4.30;95.50;;;;;;5097549;27;20051;-86
2022/01/13 11:39:20;;;;;;;69.03;17.65;;;4.20;95.40;;;;;;5097259;27;20052;-86
2022/01/13 11:42:15;;;;;;;73.93;18.85;;;4.20;95.50;;;;;;5101538;27;20058;-86
2022/01/13 11:45:17;;;;;;;66.88;17.92;;;4.20;95.50;;;;;;5076769;28;20134;-86
2022/01/13 11:48:10;;;;;;;74.05;19.25;;;4.20;95.60;;;;;;5047653;27;20052;-86
2022/01/13 11:50:53;;;;;;;66.22;19.17;;;4.30;95.70;;;;;;5088652;27;20723;-87
2022/01/13 11:53:30;;;;;;;84.70;20.77;;;4.20;95.60;;;;;;5110771;27;20064;-86
2022/01/13 11:56:07;;;;;;;58.47;18.58;;;4.20;95.70;;;;;;5112612;27;20052;-86
2022/01/13 11:58:52;;;;;;;79.68;18.83;;;4.20;95.70;;;;;;5107389;27;20036;-86
2022/01/13 12:01:34;;;;;;;79.43;19.40;;;4.20;95.60;;;;;;5101834;27;20048;-86
2022/01/13 12:04:08;;;;;;;67.97;18.95;;;4.20;95.70;;;;;;5101534;27;20154;-86
2022/01/13 12:06:42;;;;;;;88.60;20.17;;;4.20;95.80;;;;;;5103417;27;20045;-86
2022/01/13 12:09:32;;;;;;;74.95;20.33;;;4.20;95.90;;;;;;5102045;28;20899;-86
2022/01/13 12:12:05;;;;;;;81.75;20.92;;;4.30;96.10;;;;;;5112100;27;20067;-86
2022/01/13 12:15:19;;;;;;;73.53;19.83;;;4.30;96.10;;;;;;5099794;27;20052;-86
2022/01/13 12:18:05;;;;;;;77.53;19.15;;;4.30;95.80;;;;;;5101602;27;20049;-86
2022/01/13 12:21:22;;;;;;;77.47;18.50;;;4.30;95.50;;;;;;5095954;27;20060;-86
2022/01/13 12:23:56;;;;;;;91.47;20.27;;;4.30;95.60;;;;;;5102412;27;20067;-86
2022/01/13 12:26:32;;;;;;;86.38;19.88;;;4.30;95.40;;;;;;5105943;27;20059;-86
2022/01/13 12:29:22;;;;;;;64.93;18.67;;;4.30;95.60;;;;;;5097197;27;20048;-87
2022/01/13 12:32:09;;;;;;;88.95;20.42;;;4.20;95.60;;;;;;5102640;27;20078;-86
2022/01/13 12:34:42;;;;;;;71.50;19.35;;;4.30;95.90;;;;;;5105093;27;20048;-86
2022/01/13 12:37:13;;;;;;;55.17;19.00;;;4.30;95.80;;;;;;5100822;27;20853;-86
2022/01/13 12:39:57;;;;;;;59.05;20.77;;;4.30;95.80;;;;;;5097760;28;20271;-86
2022/01/13 12:42:54;;;;;;;67.40;20.45;;;4.40;95.90;;;;;;5102896;27;20137;-86
2022/01/13 12:45:28;;;;;;;62.40;18.88;;;4.50;95.80;;;;;;5104247;27;20044;-86
2022/01/13 12:48:08;;;;;;;71.20;19.80;;;4.50;95.40;;;;;;5096512;27;20869;-87
2022/01/13 12:50:50;;;;;;;83.63;19.33;;;4.40;95.40;;;;;;5105829;27;20893;-87
2022/01/13 12:53:26;;;;;;;75.97;21.48;;;4.50;95.50;;;;;;5102593;27;20530;-86
2022/01/13 12:56:05;;;;;;;58.45;19.30;;;4.50;95.50;;;;;;5100558;27;20048;-86
2022/01/13 12:58:45;;;;;;;71.18;21.27;;;4.40;95.50;;;;;;5106277;27;20068;-86
2022/01/13 13:01:37;;;;;;;65.90;20.15;;;4.40;95.50;;;;;;5103737;27;20053;-86
2022/01/13 13:04:18;;;;;;;74.85;21.55;;;4.50;95.60;;;;;;5096511;27;20063;-86
2022/01/13 13:06:49;;;;;;;71.55;21.17;;;4.50;95.50;;;;;;5110835;27;20131;-85
2022/01/13 13:09:19;;;;;;;59.60;20.20;;;4.50;95.50;;;;;;5099248;27;21129;-86
2022/01/13 13:11:49;;;;;;;79.88;21.52;;;4.40;95.50;;;;;;5103096;27;20048;-85
2022/01/13 13:15:39;;;;;;;60.95;19.45;;;4.40;95.50;;;;;;5102426;27;20853;-85
2022/01/13 13:17:33;;;;;;;97.63;18.48;;;4.40;95.50;;;;;;5098683;27;20396;-85
2022/01/13 13:20:05;;;;;;;66.05;19.63;;;4.40;95.40;;;;;;5104479;27;20057;-85
2022/01/13 13:22:47;;;;;;;73.05;20.83;;;4.40;95.30;;;;;;5100645;27;20352;-85
2022/01/13 13:25:54;;;;;;;69.28;18.60;;;4.30;95.30;;;;;;5101534;27;20048;-85
2022/01/13 13:28:31;;;;;;;72.18;18.30;;;4.30;95.40;;;;;;5095748;27;20143;-86
2022/01/13 13:31:22;;;;;;;83.90;20.83;;;4.30;95.40;;;;;;5101741;27;20150;-86
2022/01/13 13:34:01;;;;;;;66.90;19.63;;;4.20;95.40;;;;;;5103040;27;20063;-86
2022/01/13 13:36:51;;;;;;;65.22;17.90;;;4.20;95.70;;;;;;5097684;27;20056;-85
2022/01/13 13:39:32;;;;;;;80.35;18.02;;;4.20;95.70;;;;;;5098677;27;20051;-86
2022/01/13 13:42:09;;;;;;;52.10;18.60;;;4.20;95.60;;;;;;5105330;27;20057;-86
2022/01/13 13:44:43;;;;;;;63.63;18.98;;;4.20;95.60;;;;;;5097551;27;20048;-86
2022/01/13 13:47:34;;;;;;;71.82;19.50;;;4.10;95.80;;;;;;5110170;27;20041;-86
2022/01/13 13:50:02;;;;;;;58.92;18.75;;;4.20;95.80;;;;;;5091911;27;20056;-86
2022/01/13 13:52:32;;;;;;;57.15;17.50;;;4.20;95.90;;;;;;5101435;27;20964;-86
2022/01/13 13:55:08;;;;;;;52.30;17.15;;;4.20;95.90;;;;;;5094038;27;20056;-86